Time;durP1;ratioP1;P1;durP2;ratioP2;P2;SDS_P1;SDS_P2;PMS_P1;PMS_P2;Temp;Humidity;BMP_temperature;BMP_pressure;BME280_temperature;BME280_humidity;BME280_pressure;Samples;Min_cycle;Max_cycle;Signal;HPM_P1;HPM_P2
2021/12/26 00:00:48;;;;;;;8.40;3.10;;;;;;;-0.45;90.65;99867.38;4420958;32;20105;-67
2021/12/26 00:03:22;;;;;;;8.50;3.12;;;;;;;-0.50;91.24;99867.25;4420917;32;20073;-67
2021/12/26 00:05:50;;;;;;;7.97;3.12;;;;;;;-0.38;90.98;99856.34;4420851;32;20085;-67
2021/12/26 00:08:18;;;;;;;8.80;3.22;;;;;;;-0.32;90.15;99852.19;4420809;32;20093;-67
2021/12/26 00:10:48;;;;;;;5.37;3.15;;;;;;;-0.33;90.35;99857.31;4420802;32;20549;-67
2021/12/26 00:13:17;;;;;;;8.73;3.83;;;;;;;-0.39;90.38;99857.16;4420760;32;20141;-67
2021/12/26 00:15:44;;;;;;;6.10;3.30;;;;;;;-0.32;90.74;99856.44;4420682;32;20444;-67
2021/12/26 00:18:12;;;;;;;10.57;3.90;;;;;;;-0.36;90.47;99849.47;4420736;32;20089;-67
2021/12/26 00:20:40;;;;;;;6.07;2.97;;;;;;;-0.34;90.78;99855.56;4420759;32;20100;-67
2021/12/26 00:23:11;;;;;;;7.50;3.72;;;;;;;-0.38;91.34;99857.22;4420927;32;20077;-67
2021/12/26 00:25:38;;;;;;;5.72;3.30;;;;;;;-0.43;91.46;99858.78;4420620;32;20453;-67
2021/12/26 00:28:05;;;;;;;12.05;3.72;;;;;;;-0.46;91.40;99856.13;4420687;32;20098;-68
2021/12/26 00:30:33;;;;;;;7.80;3.78;;;;;;;-0.50;91.69;99860.34;4420499;32;20164;-67
2021/12/26 00:33:00;;;;;;;8.57;3.35;;;;;;;-0.58;92.91;99864.47;4420264;32;20433;-67
2021/12/26 00:35:28;;;;;;;3.00;2.65;;;;;;;-0.32;91.91;99864.22;4420676;32;20208;-67
2021/12/26 00:37:56;;;;;;;8.45;3.17;;;;;;;-0.31;91.35;99861.69;4420599;32;20097;-67
2021/12/26 00:40:26;;;;;;;4.87;2.87;;;;;;;-0.22;90.94;99860.12;4420567;32;20097;-67
2021/12/26 00:42:55;;;;;;;5.68;3.53;;;;;;;-0.28;90.62;99861.75;4420539;32;20157;-67
2021/12/26 00:45:22;;;;;;;5.12;2.90;;;;;;;-0.32;90.25;99864.22;4420656;32;20117;-67
2021/12/26 00:47:50;;;;;;;6.05;2.78;;;;;;;-0.44;90.19;99864.81;4420525;32;20181;-67
2021/12/26 00:50:22;;;;;;;4.57;2.85;;;;;;;-0.50;91.14;99862.06;4420463;32;20631;-67
2021/12/26 00:52:50;;;;;;;6.03;2.95;;;;;;;-0.41;90.67;99862.31;4420309;32;20139;-68
2021/12/26 00:55:18;;;;;;;4.85;2.72;;;;;;;-0.46;91.37;99857.84;4420343;32;20442;-67
2021/12/26 00:57:46;;;;;;;4.45;2.42;;;;;;;-0.41;91.12;99862.31;4420318;32;20526;-67
2021/12/26 01:00:19;;;;;;;4.68;2.87;;;;;;;-0.33;91.00;99862.47;4420537;32;20132;-67
2021/12/26 01:02:47;;;;;;;3.97;2.70;;;;;;;-0.45;91.33;99864.78;4420417;32;20073;-67
2021/12/26 01:05:21;;;;;;;4.57;2.62;;;;;;;-0.39;90.91;99863.22;4420324;32;20186;-67
2021/12/26 01:10:20;;;;;;;7.32;3.47;;;;;;;-0.34;91.05;99864.19;4420279;32;20162;-67
2021/12/26 01:12:49;;;;;;;6.82;3.30;;;;;;;-0.36;91.16;99868.44;4420285;32;20081;-67
2021/12/26 01:15:19;;;;;;;5.10;2.95;;;;;;;-0.54;92.58;99873.19;4420316;32;20127;-68
2021/12/26 01:17:47;;;;;;;6.68;3.42;;;;;;;-0.43;92.26;99876.03;4420140;32;20433;-68
2021/12/26 01:20:29;;;;;;;6.15;2.97;;;;;;;-0.47;92.87;99871.63;4420221;32;20558;-67
2021/12/26 01:22:56;;;;;;;8.32;2.80;;;;;;;-0.39;92.29;99868.41;4420221;32;20131;-68
2021/12/26 01:25:23;;;;;;;5.62;2.80;;;;;;;-0.38;92.27;99871.87;4420184;32;20120;-67
2021/12/26 01:27:51;;;;;;;6.15;2.72;;;;;;;-0.35;92.27;99874.53;4420132;32;20573;-68
2021/12/26 01:30:18;;;;;;;8.32;2.90;;;;;;;-0.27;91.86;99888.53;4419968;32;20172;-68
2021/12/26 01:32:45;;;;;;;6.72;2.65;;;;;;;-0.21;91.16;99883.50;4419897;32;20797;-68
2021/12/26 01:35:13;;;;;;;6.37;2.67;;;;;;;-0.17;90.93;99880.13;4420094;32;20521;-67
2021/12/26 01:37:41;;;;;;;4.57;2.78;;;;;;;-0.28;90.93;99887.66;4419855;32;20124;-67
2021/12/26 01:40:08;;;;;;;8.95;3.42;;;;;;;-0.36;91.10;99889.16;4420044;32;20139;-67
2021/12/26 01:42:36;;;;;;;8.77;3.58;;;;;;;-0.36;91.18;99886.56;4421981;32;20474;-67
2021/12/26 01:45:07;;;;;;;5.45;2.58;;;;;;;-0.25;91.14;99882.53;4422350;32;20180;-67
2021/12/26 01:47:39;;;;;;;6.60;2.85;;;;;;;-0.27;90.86;99879.03;4422322;32;20101;-67
2021/12/26 01:50:08;;;;;;;5.45;3.10;;;;;;;-0.35;90.82;99879.72;4422099;32;20136;-67
2021/12/26 01:52:35;;;;;;;6.50;2.40;;;;;;;-0.35;91.01;99874.53;4422186;32;20097;-67
2021/12/26 01:55:25;;;;;;;6.05;3.10;;;;;;;-0.32;90.94;99874.56;4422343;32;20113;-67
2021/12/26 01:57:54;;;;;;;6.85;3.33;;;;;;;-0.40;91.21;99876.97;4422257;32;20161;-67
2021/12/26 02:00:23;;;;;;;4.97;2.37;;;;;;;-0.38;91.38;99877.91;4422145;32;20112;-67
2021/12/26 02:02:50;;;;;;;4.97;2.85;;;;;;;-0.30;90.60;99873.78;4422039;32;20489;-67
2021/12/26 02:05:18;;;;;;;5.25;2.92;;;;;;;-0.36;91.20;99875.34;4422197;32;20120;-67
2021/12/26 02:07:46;;;;;;;4.32;3.22;;;;;;;-0.34;91.42;99871.09;4422196;32;20106;-67
2021/12/26 02:10:15;;;;;;;6.57;3.60;;;;;;;-0.21;90.97;99872.22;4422251;32;20110;-67
2021/12/26 02:12:43;;;;;;;3.97;3.15;;;;;;;-0.40;91.77;99873.53;4422155;32;20085;-67
2021/12/26 02:15:13;;;;;;;6.47;3.30;;;;;;;-0.56;92.59;99869.72;4422310;32;20093;-67
2021/12/26 02:17:40;;;;;;;6.55;2.75;;;;;;;-0.63;92.83;99862.63;4421870;32;20093;-67
2021/12/26 02:20:15;;;;;;;9.57;3.40;;;;;;;-0.68;93.26;99865.09;4421862;32;20131;-67
2021/12/26 02:22:47;;;;;;;7.45;3.12;;;;;;;-0.65;93.46;99860.00;4421954;32;20540;-67
2021/12/26 02:25:30;;;;;;;6.53;3.25;;;;;;;-0.60;93.29;99862.69;4421833;32;20093;-67
2021/12/26 02:27:59;;;;;;;7.32;3.60;;;;;;;-0.62;93.86;99866.97;4421810;32;20156;-67
2021/12/26 02:30:28;;;;;;;7.62;3.87;;;;;;;-0.74;94.26;99862.38;4421942;32;20097;-67
2021/12/26 02:32:59;;;;;;;8.90;3.53;;;;;;;-0.72;94.22;99865.84;4421873;32;20073;-67
2021/12/26 02:35:28;;;;;;;9.73;3.17;;;;;;;-0.68;93.98;99869.38;4421861;32;20385;-67
2021/12/26 02:37:56;;;;;;;6.43;4.10;;;;;;;-0.58;93.55;99864.47;4421937;32;20535;-67
2021/12/26 02:40:26;;;;;;;11.18;3.97;;;;;;;-0.66;93.92;99867.72;4421886;32;20105;-67
2021/12/26 02:42:54;;;;;;;6.97;3.72;;;;;;;-0.59;93.63;99870.50;4420098;32;20127;-67
2021/12/26 02:45:21;;;;;;;5.85;3.62;;;;;;;-0.55;93.91;99879.22;4421934;32;20097;-67
2021/12/26 02:47:51;;;;;;;6.85;3.83;;;;;;;-0.63;94.33;99878.16;4421649;32;20166;-67
2021/12/26 02:50:25;;;;;;;10.15;3.37;;;;;;;-0.57;94.41;99878.28;4422010;32;20089;-67
2021/12/26 02:52:53;;;;;;;7.57;3.78;;;;;;;-0.45;93.83;99877.72;4421319;32;20167;-67
2021/12/26 02:55:23;;;;;;;5.15;3.83;;;;;;;-0.31;92.86;99873.75;4421836;32;20123;-67
2021/12/26 02:58:01;;;;;;;7.15;4.22;;;;;;;-0.38;93.09;99870.16;4421495;32;20509;-67
2021/12/26 03:00:35;;;;;;;7.40;3.72;;;;;;;-0.30;92.46;99872.91;4421779;32;20081;-67
2021/12/26 03:03:05;;;;;;;8.38;3.97;;;;;;;-0.33;92.29;99876.28;4421453;32;20081;-67
2021/12/26 03:05:41;;;;;;;5.75;3.65;;;;;;;-0.31;92.17;99866.00;4421680;32;20192;-67
2021/12/26 03:08:11;;;;;;;5.75;3.28;;;;;;;-0.29;91.62;99877.25;4421515;32;20101;-67
2021/12/26 03:10:39;;;;;;;5.22;3.37;;;;;;;-0.34;91.99;99874.56;4421458;32;20540;-67
2021/12/26 03:13:09;;;;;;;4.57;3.15;;;;;;;-0.29;91.79;99872.06;4421233;32;20133;-67
2021/12/26 03:15:38;;;;;;;5.93;3.37;;;;;;;-0.30;91.85;99876.38;4421287;32;20123;-67
2021/12/26 03:18:07;;;;;;;4.05;3.22;;;;;;;-0.34;91.20;99873.69;4421192;32;20098;-67
2021/12/26 03:20:39;;;;;;;4.87;2.72;;;;;;;-0.24;90.79;99883.41;4421347;32;20109;-67
2021/12/26 03:23:07;;;;;;;4.07;2.58;;;;;;;-0.25;90.01;99889.41;4421426;32;20145;-67
2021/12/26 03:25:36;;;;;;;2.22;2.03;;;;;;;-0.19;88.60;99883.50;4421585;32;20101;-67
2021/12/26 03:28:05;;;;;;;4.12;2.20;;;;;;;-0.19;87.27;99889.56;4421207;32;20128;-67
2021/12/26 03:30:34;;;;;;;3.20;1.83;;;;;;;-0.31;87.42;99877.22;4421412;32;20135;-67
2021/12/26 03:33:07;;;;;;;3.92;1.77;;;;;;;-0.40;86.75;99883.88;4421365;32;20146;-67
2021/12/26 03:35:35;;;;;;;4.18;2.05;;;;;;;-0.51;86.84;99873.28;4421494;32;20146;-67
2021/12/26 03:38:05;;;;;;;2.40;2.10;;;;;;;-0.52;87.05;99876.72;4421307;32;20482;-67
2021/12/26 03:40:36;;;;;;;1.92;1.70;;;;;;;-0.50;86.65;99873.28;4421422;32;20098;-67
2021/12/26 03:43:04;;;;;;;2.75;1.70;;;;;;;-0.45;85.50;99872.56;4420998;32;20092;-67
2021/12/26 03:45:41;;;;;;;3.45;1.67;;;;;;;-0.40;84.79;99881.28;4421440;32;20073;-67
2021/12/26 03:48:09;;;;;;;3.75;2.03;;;;;;;-0.42;85.60;99877.81;4421049;32;20251;-67
2021/12/26 03:50:40;;;;;;;1.70;1.42;;;;;;;-0.40;84.21;99869.22;4421286;32;20135;-67
2021/12/26 03:53:12;;;;;;;2.78;1.55;;;;;;;-0.45;84.76;99869.97;4421197;32;20089;-67
2021/12/26 03:55:40;;;;;;;3.60;1.60;;;;;;;-0.45;85.79;99868.25;4420978;32;20124;-67
2021/12/26 03:58:08;;;;;;;2.87;1.87;;;;;;;-0.33;85.11;99878.00;4420922;32;20449;-67
2021/12/26 04:00:38;;;;;;;2.65;1.73;;;;;;;-0.36;86.36;99867.56;4420900;32;20477;-67
2021/12/26 04:03:06;;;;;;;2.40;1.80;;;;;;;-0.31;85.90;99866.00;4420872;32;20107;-67
2021/12/26 04:05:36;;;;;;;2.30;1.98;;;;;;;-0.17;85.88;99868.91;4420827;32;20151;-67
2021/12/26 04:08:05;;;;;;;2.00;1.80;;;;;;;-0.17;85.64;99869.78;4420720;32;20090;-67
2021/12/26 04:10:33;;;;;;;4.57;2.10;;;;;;;-0.15;86.46;99860.31;4420990;32;20559;-67
2021/12/26 04:13:01;;;;;;;4.12;2.55;;;;;;;-0.15;86.49;99870.66;4420707;32;20120;-67
2021/12/26 04:15:29;;;;;;;2.20;2.00;;;;;;;-0.16;86.68;99876.69;4421049;32;20105;-67
2021/12/26 04:17:58;;;;;;;3.35;2.33;;;;;;;-0.19;86.59;99874.03;4420883;32;20459;-67
2021/12/26 04:20:28;;;;;;;3.33;2.30;;;;;;;-0.29;87.50;99870.34;4420890;32;20097;-67
2021/12/26 04:22:59;;;;;;;2.75;1.90;;;;;;;-0.16;87.20;99866.34;4420903;32;20149;-67
2021/12/26 04:25:27;;;;;;;4.43;1.92;;;;;;;-0.19;86.74;99878.34;4420661;32;20090;-67
2021/12/26 04:27:55;;;;;;;4.60;2.10;;;;;;;-0.28;86.86;99877.28;4420816;32;20114;-67
2021/12/26 04:30:23;;;;;;;2.22;1.98;;;;;;;-0.30;86.36;99878.97;4420801;32;20188;-67
2021/12/26 04:32:51;;;;;;;3.30;1.83;;;;;;;-0.16;85.95;99875.81;4420582;32;20176;-67
2021/12/26 04:35:19;;;;;;;2.85;1.80;;;;;;;-0.23;86.81;99876.53;4420841;32;20395;-67
2021/12/26 04:37:48;;;;;;;1.95;1.80;;;;;;;-0.20;87.01;99885.22;4420572;32;20119;-67
2021/12/26 04:40:17;;;;;;;2.67;1.85;;;;;;;-0.08;85.65;99889.81;4420756;32;20105;-67
2021/12/26 04:42:47;;;;;;;1.42;1.33;;;;;;;-0.10;85.44;99888.91;4420925;32;20089;-67
2021/12/26 04:45:15;;;;;;;1.70;1.50;;;;;;;-0.10;85.17;99899.28;4420638;32;20168;-67
2021/12/26 04:47:49;;;;;;;2.17;1.87;;;;;;;-0.11;84.85;99900.09;4420653;32;20094;-67
2021/12/26 04:50:21;;;;;;;2.45;2.10;;;;;;;-0.06;84.47;99906.28;4420672;32;20143;-67
2021/12/26 04:52:57;;;;;;;2.70;2.17;;;;;;;-0.12;84.61;99911.31;4420522;32;20081;-67
2021/12/26 04:55:26;;;;;;;2.87;1.85;;;;;;;-0.16;83.90;99912.94;4420593;32;20176;-67
2021/12/26 04:57:53;;;;;;;3.03;1.65;;;;;;;-0.12;83.67;99916.47;4420297;32;20089;-67
2021/12/26 05:00:23;;;;;;;3.25;1.65;;;;;;;-0.06;81.88;99908.87;4420360;32;20093;-67
2021/12/26 05:02:50;;;;;;;2.87;1.50;;;;;;;-0.15;81.88;99911.22;4420607;32;20514;-67
2021/12/26 05:05:21;;;;;;;1.67;1.37;;;;;;;-0.21;82.22;99916.25;4420408;32;20485;-67
2021/12/26 05:07:50;;;;;;;2.53;1.12;;;;;;;-0.27;80.69;99912.69;4420357;32;20109;-67
2021/12/26 05:10:20;;;;;;;1.65;1.52;;;;;;;-0.13;81.09;99915.59;4420442;32;20159;-67
2021/12/26 05:12:47;;;;;;;2.45;0.98;;;;;;;-0.10;79.09;99915.69;4420316;32;20445;-67
2021/12/26 05:15:21;;;;;;;2.15;1.42;;;;;;;-0.13;79.95;99918.19;4420629;32;20082;-67
2021/12/26 05:17:50;;;;;;;1.75;1.20;;;;;;;-0.15;77.19;99926.75;4422756;32;20532;-67
2021/12/26 05:20:19;;;;;;;1.00;0.90;;;;;;;-0.13;78.35;99936.31;4422995;32;20084;-67
2021/12/26 05:22:52;;;;;;;2.62;1.35;;;;;;;-0.13;77.84;99938.03;4421181;32;20183;-68
2021/12/26 05:25:20;;;;;;;2.15;1.10;;;;;;;-0.16;75.96;99936.25;4422589;32;20165;-68
2021/12/26 05:27:52;;;;;;;1.02;0.93;;;;;;;-0.15;76.79;99940.56;4422746;32;20490;-67
2021/12/26 05:30:21;;;;;;;1.95;1.30;;;;;;;-0.15;75.37;99943.16;4422660;32;20531;-67
2021/12/26 05:32:49;;;;;;;1.75;1.27;;;;;;;-0.13;76.14;99945.81;4422430;32;20102;-67
2021/12/26 05:35:19;;;;;;;2.00;1.20;;;;;;;-0.16;75.00;99956.09;4422668;32;20434;-68
2021/12/26 05:37:50;;;;;;;2.37;1.08;;;;;;;-0.23;74.65;99954.19;4422661;32;20119;-67
2021/12/26 05:40:17;;;;;;;3.67;1.70;;;;;;;-0.11;74.87;99955.34;4422596;32;20097;-67
2021/12/26 05:42:44;;;;;;;2.28;1.35;;;;;;;-0.05;72.71;99955.50;4422604;32;20160;-67
2021/12/26 05:45:13;;;;;;;2.45;1.30;;;;;;;0.02;73.45;99956.53;4422340;32;20494;-67
2021/12/26 05:47:44;;;;;;;2.03;1.20;;;;;;;0.02;72.00;99959.12;4422331;32;20540;-67
2021/12/26 05:50:14;;;;;;;5.15;1.58;;;;;;;-0.02;73.01;99963.34;4422253;32;20097;-68
2021/12/26 05:52:42;;;;;;;5.90;1.12;;;;;;;0.01;72.89;99959.97;4422493;32;20481;-67
2021/12/26 05:55:12;;;;;;;2.78;1.40;;;;;;;-0.01;71.03;99965.09;4422279;32;20123;-68
2021/12/26 05:57:42;;;;;;;1.65;0.90;;;;;;;0.01;71.86;99961.69;4422373;32;20093;-68
2021/12/26 06:00:17;;;;;;;1.27;1.15;;;;;;;0.02;70.02;99972.06;4422455;32;20441;-68
2021/12/26 06:02:44;;;;;;;1.15;1.02;;;;;;;0.07;71.68;99973.06;4422200;32;20520;-67
2021/12/26 06:05:13;;;;;;;1.00;0.73;;;;;;;0.11;71.02;99972.28;4422224;32;20575;-67
2021/12/26 06:07:41;;;;;;;2.20;1.10;;;;;;;-0.09;71.05;99981.28;4422182;32;20097;-67
2021/12/26 06:10:09;;;;;;;1.45;0.80;;;;;;;-0.05;71.81;99977.94;4422096;32;20812;-67
2021/12/26 06:12:38;;;;;;;2.03;1.17;;;;;;;-0.04;73.08;99985.72;4422091;32;20077;-67
2021/12/26 06:15:06;;;;;;;2.08;1.00;;;;;;;-0.01;71.36;99982.34;4422073;32;20119;-67
2021/12/26 06:17:34;;;;;;;0.60;0.60;;;;;;;0.04;72.80;99987.66;4422059;32;20105;-67
2021/12/26 06:20:13;;;;;;;1.33;0.90;;;;;;;-0.07;69.58;99996.03;4420527;32;20477;-67
2021/12/26 06:22:45;;;;;;;2.25;0.90;;;;;;;0.04;70.36;99990.25;4422092;32;20101;-67
2021/12/26 06:25:16;;;;;;;1.05;0.80;;;;;;;-0.02;71.62;99986.66;4421919;32;20119;-67
2021/12/26 06:27:44;;;;;;;0.75;0.73;;;;;;;-0.01;70.80;99993.56;4421512;32;20178;-67
2021/12/26 06:30:22;;;;;;;1.60;1.08;;;;;;;0.08;70.89;99997.25;4422084;32;20093;-67
2021/12/26 06:32:52;;;;;;;1.62;1.10;;;;;;;0.08;70.94;100005.03;4421798;32;20089;-67
2021/12/26 06:35:21;;;;;;;2.60;1.80;;;;;;;0.18;67.23;100007.00;4421811;32;20485;-67
2021/12/26 06:37:56;;;;;;;3.42;1.80;;;;;;;0.16;67.76;100004.34;4421846;32;20116;-67
2021/12/26 06:40:38;;;;;;;6.25;3.10;;;;;;;0.15;70.00;100001.75;4419757;32;20174;-67
2021/12/26 06:43:11;;;;;;;6.97;2.87;;;;;;;0.18;69.33;100010.47;4421846;32;20093;-67
2021/12/26 06:45:54;;;;;;;4.30;2.47;;;;;;;0.27;69.88;100012.38;4421879;32;20109;-67
2021/12/26 06:48:25;;;;;;;4.90;1.90;;;;;;;0.23;68.41;100015.75;4421760;32;20086;-67
2021/12/26 06:50:54;;;;;;;2.78;1.50;;;;;;;0.13;69.95;100018.94;4421303;32;20172;-67
2021/12/26 06:53:21;;;;;;;2.10;1.23;;;;;;;0.03;70.72;100011.78;4421304;32;20145;-67
2021/12/26 06:55:49;;;;;;;2.20;1.20;;;;;;;0.13;71.33;100021.53;4421501;32;20112;-67
2021/12/26 06:58:16;;;;;;;5.03;2.33;;;;;;;0.27;70.23;100022.75;4419850;32;20105;-67
2021/12/26 07:00:46;;;;;;;2.10;1.52;;;;;;;0.23;69.67;100021.78;4421452;32;20096;-67
2021/12/26 07:03:14;;;;;;;1.60;1.30;;;;;;;0.31;69.00;100019.38;4421728;32;20636;-67
2021/12/26 07:05:42;;;;;;;2.08;1.55;;;;;;;0.26;70.59;100026.19;4421570;32;20446;-67
2021/12/26 07:08:10;;;;;;;3.12;1.98;;;;;;;0.43;68.89;100024.88;4421499;32;20110;-67
2021/12/26 07:10:43;;;;;;;5.43;2.45;;;;;;;0.42;67.63;100023.09;4421733;32;20093;-67
2021/12/26 07:13:11;;;;;;;9.60;2.80;;;;;;;0.31;67.79;100029.75;4421288;32;20524;-67
2021/12/26 07:15:39;;;;;;;3.12;2.25;;;;;;;0.20;69.25;100026.03;4421568;32;20169;-67
2021/12/26 07:18:06;;;;;;;5.93;2.85;;;;;;;0.39;68.05;100035.09;4421306;32;20173;-67
2021/12/26 07:20:34;;;;;;;4.82;2.30;;;;;;;0.42;65.63;100038.62;4421430;32;20416;-67
2021/12/26 07:23:02;;;;;;;7.90;4.40;;;;;;;0.48;65.76;100040.50;4421452;32;20540;-67
2021/12/26 07:25:30;;;;;;;3.03;2.30;;;;;;;0.46;63.72;100035.31;4421535;32;20090;-67
2021/12/26 07:27:57;;;;;;;2.92;2.00;;;;;;;0.58;64.07;100039.00;4420994;32;20471;-65
2021/12/26 07:30:29;;;;;;;2.55;2.05;;;;;;;0.47;63.42;100039.63;4421438;32;20460;-65
2021/12/26 07:32:56;;;;;;;6.37;2.42;;;;;;;0.57;65.31;100042.47;4421139;32;20429;-65
2021/12/26 07:35:26;;;;;;;3.50;1.85;;;;;;;0.67;65.01;100041.78;4421218;32;20081;-65
2021/12/26 07:37:54;;;;;;;3.37;1.67;;;;;;;0.65;63.27;100041.78;4420891;32;20153;-65
2021/12/26 07:40:22;;;;;;;2.05;1.45;;;;;;;0.70;64.94;100045.34;4420541;32;20158;-65
2021/12/26 07:42:54;;;;;;;2.30;1.52;;;;;;;0.85;62.36;100046.50;4421268;32;20145;-65
2021/12/26 07:45:26;;;;;;;2.00;1.50;;;;;;;0.91;61.23;100052.72;4421262;32;20081;-65
2021/12/26 07:47:58;;;;;;;2.17;1.52;;;;;;;0.95;61.08;100043.28;4421302;32;20128;-65
2021/12/26 07:50:26;;;;;;;2.12;1.27;;;;;;;1.03;62.43;100046.06;4421258;32;20157;-65
2021/12/26 07:53:11;;;;;;;2.08;1.30;;;;;;;1.04;61.49;100045.22;4421117;32;20089;-65
2021/12/26 07:55:53;;;;;;;4.30;1.37;;;;;;;1.01;61.13;100047.72;4420989;32;20098;-65
2021/12/26 07:58:35;;;;;;;3.08;1.90;;;;;;;1.15;62.41;100054.94;4420956;32;20128;-65
2021/12/26 08:01:17;;;;;;;1.90;1.73;;;;;;;1.26;60.92;100057.78;4420843;32;20101;-65
2021/12/26 08:03:46;;;;;;;1.45;1.35;;;;;;;1.33;59.81;100057.03;4420843;32;20097;-65
2021/12/26 08:06:19;;;;;;;3.25;1.30;;;;;;;1.41;59.25;100057.19;4420447;32;20127;-65
2021/12/26 08:08:49;;;;;;;2.28;1.33;;;;;;;1.59;58.12;100067.06;4420540;32;20160;-65
2021/12/26 08:11:16;;;;;;;1.98;1.30;;;;;;;1.64;59.78;100063.72;4420722;32;20127;-65
2021/12/26 08:13:43;;;;;;;5.20;1.20;;;;;;;1.79;57.00;100057.91;4420502;32;20122;-65
2021/12/26 08:16:11;;;;;;;6.60;1.30;;;;;;;1.85;57.57;100059.78;4420926;32;20106;-65
2021/12/26 08:18:38;;;;;;;3.85;2.25;;;;;;;1.82;58.43;100059.72;4420618;32;20157;-65
2021/12/26 08:21:06;;;;;;;7.32;2.50;;;;;;;1.95;58.35;100056.50;4420728;32;20104;-65
2021/12/26 08:23:34;;;;;;;4.00;2.20;;;;;;;2.13;57.37;100058.53;4420636;32;20093;-65
2021/12/26 08:26:02;;;;;;;4.68;2.45;;;;;;;2.14;57.04;100057.66;4420699;32;20156;-65
2021/12/26 08:28:29;;;;;;;7.50;2.90;;;;;;;2.43;57.10;100049.47;4420582;32;20174;-65
2021/12/26 08:30:57;;;;;;;3.92;2.25;;;;;;;2.43;56.60;100057.25;4420682;32;20167;-65
2021/12/26 08:33:24;;;;;;;5.90;2.40;;;;;;;2.61;55.74;100055.84;4420481;32;20115;-65
2021/12/26 08:35:52;;;;;;;6.40;1.55;;;;;;;2.80;55.12;100066.50;4420815;32;20510;-65
2021/12/26 08:38:21;;;;;;;2.35;1.45;;;;;;;2.77;53.25;100063.84;4420628;32;20120;-65
2021/12/26 08:40:53;;;;;;;5.50;1.62;;;;;;;2.81;51.75;100061.31;4420490;32;20550;-65
2021/12/26 08:43:21;;;;;;;2.62;1.50;;;;;;;2.57;54.27;100058.34;4420612;32;20163;-65
2021/12/26 08:45:49;;;;;;;3.37;1.80;;;;;;;2.67;53.14;100065.44;4420398;32;20417;-66
2021/12/26 08:48:17;;;;;;;3.97;1.77;;;;;;;2.57;52.76;100072.22;4420475;32;20106;-65
2021/12/26 08:50:46;;;;;;;2.83;1.33;;;;;;;2.67;52.12;100081.06;4420230;32;20105;-65
2021/12/26 08:53:14;;;;;;;3.10;1.60;;;;;;;2.78;53.39;100069.06;4420536;32;20512;-65
2021/12/26 08:55:42;;;;;;;2.25;1.08;;;;;;;3.02;53.54;100060.75;4420604;32;20177;-66
2021/12/26 08:58:10;;;;;;;2.10;1.35;;;;;;;2.95;53.42;100061.50;4420526;32;20568;-66
2021/12/26 09:00:38;;;;;;;2.60;1.02;;;;;;;2.97;51.44;100065.03;4418674;32;20139;-65
2021/12/26 09:03:05;;;;;;;3.78;1.90;;;;;;;2.95;52.16;100066.72;4420278;32;20137;-68
2021/12/26 09:05:32;;;;;;;4.22;1.62;;;;;;;3.04;52.75;100058.13;4420303;32;20119;-66
2021/12/26 09:08:02;;;;;;;15.75;2.70;;;;;;;2.90;53.27;100052.78;4420345;32;20176;-66
2021/12/26 09:10:29;;;;;;;4.32;2.58;;;;;;;2.82;51.98;100047.44;4420228;32;20479;-65
2021/12/26 09:12:56;;;;;;;4.60;2.87;;;;;;;2.71;52.98;100048.16;4420120;32;20168;-66
2021/12/26 09:15:23;;;;;;;5.47;2.67;;;;;;;2.96;50.74;100046.75;4420105;32;20745;-66
2021/12/26 09:17:51;;;;;;;5.50;2.35;;;;;;;2.96;54.30;100049.38;4420158;32;20098;-66
2021/12/26 09:20:21;;;;;;;6.03;2.97;;;;;;;2.87;52.99;100047.53;4420096;32;20780;-65
2021/12/26 09:22:48;;;;;;;6.80;2.50;;;;;;;3.03;52.47;100041.66;4420092;32;20086;-65
2021/12/26 09:25:15;;;;;;;9.30;3.03;;;;;;;2.90;52.90;100050.19;4419981;32;20376;-66
2021/12/26 09:27:42;;;;;;;2.90;1.87;;;;;;;2.91;52.75;100044.09;4420023;32;20132;-65
2021/12/26 09:30:12;;;;;;;4.03;2.15;;;;;;;3.00;50.96;100048.53;4420006;32;20494;-66
2021/12/26 09:32:43;;;;;;;3.05;1.70;;;;;;;2.94;52.23;100053.69;4419750;32;20494;-66
2021/12/26 09:35:11;;;;;;;5.55;2.10;;;;;;;2.99;50.98;100045.06;4420003;32;20103;-66
2021/12/26 09:37:45;;;;;;;7.62;2.60;;;;;;;2.91;51.73;100049.31;4419974;32;20082;-66
2021/12/26 09:40:14;;;;;;;2.72;2.00;;;;;;;3.04;50.85;100052.94;4419808;32;20444;-66
2021/12/26 09:42:43;;;;;;;6.75;3.08;;;;;;;3.15;50.87;100048.78;4419869;32;20385;-66
2021/12/26 09:45:11;;;;;;;4.70;2.10;;;;;;;3.27;50.31;100046.31;4419927;32;20086;-66
2021/12/26 09:47:40;;;;;;;4.95;2.03;;;;;;;3.21;51.33;100047.94;4419757;32;20219;-66
2021/12/26 09:50:09;;;;;;;3.70;1.83;;;;;;;3.39;50.28;100045.56;4419771;32;20518;-66
2021/12/26 09:52:41;;;;;;;3.85;1.95;;;;;;;3.35;48.92;100035.97;4420034;32;20085;-66
2021/12/26 09:55:12;;;;;;;3.55;2.03;;;;;;;3.33;48.63;100037.69;4419672;32;20111;-66
2021/12/26 09:57:39;;;;;;;4.70;2.22;;;;;;;3.32;49.88;100036.84;4419598;32;20469;-66
2021/12/26 10:00:40;;;;;;;5.55;2.65;;;;;;;3.25;49.80;100035.00;4419662;32;20097;-66
2021/12/26 10:03:10;;;;;;;2.95;1.80;;;;;;;3.46;49.40;100029.16;4437072;32;20097;-66
2021/12/26 10:06:00;;;;;;;3.87;1.62;;;;;;;3.56;49.60;100024.91;4422052;32;20082;-66
2021/12/26 10:08:29;;;;;;;4.53;1.58;;;;;;;3.39;49.08;100026.47;4421974;32;20119;-66
2021/12/26 10:11:15;;;;;;;3.80;1.58;;;;;;;3.38;49.34;100024.72;4422142;32;20123;-66
2021/12/26 10:13:46;;;;;;;1.70;1.33;;;;;;;3.37;49.74;100031.66;4421898;32;20155;-66
2021/12/26 10:16:15;;;;;;;2.60;1.42;;;;;;;3.21;48.13;100020.19;4421872;32;20410;-66
2021/12/26 10:18:44;;;;;;;2.28;1.08;;;;;;;3.50;47.19;100022.28;4422098;32;20113;-66
2021/12/26 10:21:27;;;;;;;4.03;1.42;;;;;;;3.60;47.30;100021.47;4421846;32;20093;-66
2021/12/26 10:24:21;;;;;;;3.35;1.73;;;;;;;3.91;45.61;100017.44;4421802;32;20712;-66
2021/12/26 10:27:04;;;;;;;2.53;1.33;;;;;;;4.13;44.48;100018.50;4425224;31;20081;-66
2021/12/26 10:29:40;;;;;;;2.40;1.58;;;;;;;4.92;42.71;100012.09;4422004;32;20086;-66
2021/12/26 10:32:14;;;;;;;2.95;1.50;;;;;;;5.45;42.22;100008.81;4421960;32;20088;-66
2021/12/26 10:34:52;;;;;;;1.27;1.17;;;;;;;6.85;39.92;100007.97;4421556;32;20137;-66
2021/12/26 10:37:24;;;;;;;5.50;1.33;;;;;;;7.67;38.04;100005.88;4422104;32;20553;-66
2021/12/26 10:39:58;;;;;;;2.12;1.50;;;;;;;8.44;34.75;99998.28;4421669;32;20170;-66
2021/12/26 10:42:32;;;;;;;6.75;2.12;;;;;;;9.10;34.51;99987.06;4420049;32;20121;-66
2021/12/26 10:45:09;;;;;;;3.85;1.83;;;;;;;10.58;32.92;99998.91;4421714;32;20073;-67
2021/12/26 10:47:38;;;;;;;;;;;;;;;11.13;30.47;99997.84;4421986;32;20157;-66
2021/12/26 10:50:11;;;;;;;1.90;1.30;;;;;;;11.51;31.07;100002.31;4421553;32;20065;-67
2021/12/26 10:52:41;;;;;;;2.83;1.77;;;;;;;11.73;30.74;99998.31;4421580;32;20496;-67
2021/12/26 10:55:16;;;;;;;3.70;1.85;;;;;;;11.39;29.94;100003.44;4421636;32;20099;-67
2021/12/26 10:57:49;;;;;;;4.87;2.40;;;;;;;11.86;28.82;99985.72;4421645;32;20193;-67
2021/12/26 11:00:27;;;;;;;2.83;1.35;;;;;;;11.58;29.10;99977.53;4421566;32;20169;-67
2021/12/26 11:03:01;;;;;;;3.75;1.60;;;;;;;11.78;27.44;99994.69;4421532;32;20153;-67
2021/12/26 11:05:31;;;;;;;2.72;1.85;;;;;;;11.10;28.63;99995.28;4421560;32;20443;-66
2021/12/26 11:08:01;;;;;;;2.92;1.73;;;;;;;11.17;30.19;99999.53;4421429;32;20093;-67
2021/12/26 11:10:36;;;;;;;2.50;1.83;;;;;;;11.72;28.16;99991.28;4421423;32;20086;-67
2021/12/26 11:13:06;;;;;;;2.37;1.50;;;;;;;12.01;26.78;99991.53;4421735;32;20148;-67
2021/12/26 11:15:40;;;;;;;2.78;2.00;;;;;;;12.57;27.51;99983.94;4421454;32;20069;-67
2021/12/26 11:18:13;;;;;;;1.87;1.35;;;;;;;12.43;25.63;99981.66;4421362;32;20112;-67
2021/12/26 11:20:43;;;;;;;1.62;1.35;;;;;;;12.59;26.57;99984.78;4421320;32;20785;-66
2021/12/26 11:23:17;;;;;;;3.72;1.55;;;;;;;13.03;26.39;99990.62;4421430;32;20098;-67
2021/12/26 11:25:50;;;;;;;3.55;1.58;;;;;;;13.50;25.56;99983.09;4421584;32;20113;-67
2021/12/26 11:28:26;;;;;;;4.18;1.48;;;;;;;14.71;25.19;99981.84;4421266;32;20112;-67
2021/12/26 11:31:06;;;;;;;3.93;1.67;;;;;;;14.61;22.79;99976.00;4421240;32;20105;-67
2021/12/26 11:33:34;;;;;;;3.22;2.05;;;;;;;14.91;22.85;99971.41;4421249;32;20262;-67
2021/12/26 11:36:08;;;;;;;2.87;1.65;;;;;;;15.13;25.43;99975.91;4421149;32;20081;-67
2021/12/26 11:38:37;;;;;;;3.67;2.05;;;;;;;15.36;22.83;99980.34;4421263;32;20081;-67
2021/12/26 11:41:22;;;;;;;5.65;3.45;;;;;;;15.38;22.10;99981.16;4421261;32;20101;-67
2021/12/26 11:44:51;;;;;;;4.32;2.42;;;;;;;15.39;24.60;99988.19;4421170;32;20468;-67
2021/12/26 11:47:58;;;;;;;3.12;2.20;;;;;;;14.13;24.73;99997.88;4424490;32;20094;-67
2021/12/26 11:51:01;;;;;;;2.60;1.70;;;;;;;13.22;23.05;99996.28;4421290;32;20093;-67
2021/12/26 11:53:41;;;;;;;1.95;1.67;;;;;;;13.37;23.72;100001.16;4421284;32;20144;-67